Time;durP1;ratioP1;P1;durP2;ratioP2;P2;SDS_P1;SDS_P2;PMS_P1;PMS_P2;Temp;Humidity;BMP_temperature;BMP_pressure;BME280_temperature;BME280_humidity;BME280_pressure;Samples;Min_cycle;Max_cycle;Signal;HPM_P1;HPM_P2
2023/07/22 00:02:27;;;;;;;8.70;4.63;;;19.00;82.20;;;;;;6161918;23;20020;-88
2023/07/22 00:04:54;;;;;;;9.82;5.63;;;19.10;81.90;;;;;;6137150;23;20048;-88
2023/07/22 00:07:21;;;;;;;10.15;4.90;;;19.10;81.50;;;;;;6136924;23;20020;-88
2023/07/22 00:09:49;;;;;;;9.13;5.00;;;19.10;81.40;;;;;;6137065;23;20020;-88
2023/07/22 00:12:16;;;;;;;9.77;4.93;;;19.10;81.80;;;;;;6161621;23;20111;-89
2023/07/22 00:14:44;;;;;;;9.93;4.95;;;19.10;81.60;;;;;;6136600;23;20021;-89
2023/07/22 00:17:11;;;;;;;10.25;4.97;;;19.20;81.60;;;;;;6136724;23;20021;-87
2023/07/22 00:19:38;;;;;;;10.00;5.25;;;19.20;81.30;;;;;;6161180;23;20465;-88
2023/07/22 00:22:05;;;;;;;10.43;5.32;;;19.30;81.10;;;;;;6160980;23;20044;-88
2023/07/22 00:24:32;;;;;;;11.27;5.53;;;19.20;81.20;;;;;;6137177;23;20099;-89
2023/07/22 00:26:59;;;;;;;10.70;5.68;;;19.10;81.70;;;;;;6136609;23;20025;-89
2023/07/22 00:29:26;;;;;;;9.57;6.55;;;19.10;81.90;;;;;;6161705;23;20444;-89
2023/07/22 00:31:53;;;;;;;10.63;6.40;;;19.00;82.40;;;;;;6137319;23;20028;-89
2023/07/22 00:34:20;;;;;;;11.05;6.15;;;19.00;82.40;;;;;;6161117;23;20021;-88
2023/07/22 00:36:47;;;;;;;10.10;5.83;;;18.90;82.50;;;;;;6136748;23;20021;-89
2023/07/22 00:39:14;;;;;;;10.32;5.75;;;18.90;82.70;;;;;;6136487;23;20025;-88
2023/07/22 00:41:44;;;;;;;9.15;5.70;;;18.90;82.70;;;;;;6161118;23;20072;-88
2023/07/22 00:44:12;;;;;;;10.55;5.45;;;18.90;82.60;;;;;;6137093;23;20041;-89
2023/07/22 00:46:39;;;;;;;9.52;5.10;;;18.90;82.50;;;;;;6161328;23;20048;-89
2023/07/22 00:49:08;;;;;;;9.27;5.00;;;18.90;82.40;;;;;;6137118;23;20072;-89
2023/07/22 00:51:35;;;;;;;8.23;4.75;;;18.80;82.40;;;;;;6136919;23;20474;-89
2023/07/22 00:54:04;;;;;;;8.88;4.93;;;18.80;82.20;;;;;;6136947;23;20092;-89
2023/07/22 00:56:35;;;;;;;7.80;4.50;;;18.60;82.30;;;;;;6137084;23;20076;-89
2023/07/22 00:59:02;;;;;;;8.40;4.93;;;18.60;82.60;;;;;;6136706;23;20478;-89
2023/07/22 01:01:29;;;;;;;8.40;4.47;;;18.60;82.30;;;;;;6136867;23;20017;-89
2023/07/22 01:03:56;;;;;;;8.77;5.25;;;18.50;82.20;;;;;;6161132;23;20027;-89
2023/07/22 01:06:29;;;;;;;8.45;4.82;;;18.50;82.50;;;;;;6136297;23;20436;-88
2023/07/22 01:08:59;;;;;;;7.60;4.32;;;18.40;82.80;;;;;;6137036;23;20096;-89
2023/07/22 01:11:26;;;;;;;11.27;5.00;;;18.50;82.70;;;;;;6137156;23;20027;-89
2023/07/22 01:13:57;;;;;;;8.67;5.03;;;18.50;82.50;;;;;;6136640;23;20017;-89
2023/07/22 01:16:27;;;;;;;9.85;4.57;;;18.50;82.30;;;;;;6161266;23;20024;-89
2023/07/22 01:18:56;;;;;;;10.25;5.15;;;18.50;82.20;;;;;;6136516;23;20013;-88
2023/07/22 01:21:25;;;;;;;8.80;4.97;;;18.60;81.90;;;;;;6136674;23;20017;-89
2023/07/22 01:23:53;;;;;;;10.98;5.78;;;18.60;81.50;;;;;;6161142;23;20021;-89
2023/07/22 01:26:20;;;;;;;10.93;5.20;;;18.60;81.30;;;;;;6161714;23;20040;-88
2023/07/22 01:28:47;;;;;;;9.98;5.47;;;18.70;81.00;;;;;;6136353;23;20021;-89
2023/07/22 01:31:14;;;;;;;10.40;5.07;;;18.80;80.70;;;;;;6136847;23;20021;-88
2023/07/22 01:33:41;;;;;;;9.02;4.28;;;18.80;80.30;;;;;;6137057;23;20068;-89
2023/07/22 01:36:08;;;;;;;8.38;3.80;;;18.80;80.00;;;;;;6160929;23;20021;-89
2023/07/22 01:38:35;;;;;;;7.23;3.57;;;18.60;80.30;;;;;;6136167;23;20056;-88
2023/07/22 01:41:02;;;;;;;7.35;3.10;;;18.60;80.70;;;;;;6135953;23;20028;-89
2023/07/22 01:43:29;;;;;;;9.90;3.67;;;18.70;80.50;;;;;;6136534;23;20071;-89
2023/07/22 01:45:56;;;;;;;8.05;3.28;;;18.60;80.40;;;;;;6136482;23;20032;-88
2023/07/22 01:48:23;;;;;;;6.75;3.08;;;18.60;80.20;;;;;;6136524;23;20104;-87
2023/07/22 01:50:50;;;;;;;7.73;3.57;;;18.50;80.50;;;;;;6160861;23;20021;-87
2023/07/22 01:53:18;;;;;;;7.72;3.58;;;18.50;80.70;;;;;;6160708;23;20474;-88
2023/07/22 01:55:45;;;;;;;6.30;2.95;;;18.40;81.10;;;;;;6136014;23;20017;-88
2023/07/22 01:58:12;;;;;;;6.40;2.95;;;18.20;81.30;;;;;;6135973;23;20044;-88
2023/07/22 02:00:39;;;;;;;7.75;3.15;;;18.30;81.50;;;;;;6160916;23;20021;-88
2023/07/22 02:03:06;;;;;;;6.73;3.00;;;18.30;81.30;;;;;;6136416;23;20408;-88
2023/07/22 02:05:33;;;;;;;10.23;2.90;;;18.40;81.20;;;;;;6136023;23;20519;-88
2023/07/22 02:08:00;;;;;;;8.18;2.90;;;18.50;80.80;;;;;;6136244;23;20016;-88
2023/07/22 02:10:28;;;;;;;7.75;2.67;;;18.50;80.10;;;;;;6136339;23;20431;-88
2023/07/22 02:12:55;;;;;;;7.63;2.88;;;18.50;80.30;;;;;;6136039;23;20052;-88
2023/07/22 02:15:24;;;;;;;6.73;2.90;;;18.60;80.20;;;;;;6161497;23;20017;-88
2023/07/22 02:17:51;;;;;;;6.38;2.60;;;18.60;80.20;;;;;;6136049;23;20013;-88
2023/07/22 02:20:18;;;;;;;6.28;2.90;;;18.60;80.30;;;;;;6160245;23;20029;-87
2023/07/22 02:22:45;;;;;;;7.75;2.85;;;18.60;79.80;;;;;;6135962;23;20028;-88
2023/07/22 02:25:12;;;;;;;8.80;3.67;;;18.70;79.80;;;;;;6135818;23;20392;-88
2023/07/22 02:27:40;;;;;;;7.07;3.10;;;18.70;79.70;;;;;;6135933;23;20025;-88
2023/07/22 02:30:10;;;;;;;6.20;3.50;;;18.80;79.30;;;;;;6136128;23;20049;-88
2023/07/22 02:32:41;;;;;;;9.10;3.50;;;18.90;79.20;;;;;;6135755;23;20356;-88
2023/07/22 02:35:08;;;;;;;7.22;3.00;;;18.90;79.10;;;;;;6160325;23;20021;-88
2023/07/22 02:37:39;;;;;;;8.55;3.88;;;18.90;79.00;;;;;;6136339;23;20021;-89
2023/07/22 02:40:07;;;;;;;9.10;3.10;;;18.80;78.80;;;;;;6135719;23;20116;-88
2023/07/22 02:42:35;;;;;;;8.10;3.03;;;18.80;79.10;;;;;;6135773;23;20046;-88
2023/07/22 02:45:04;;;;;;;7.75;3.35;;;18.60;79.60;;;;;;6135729;23;20444;-88
2023/07/22 02:47:34;;;;;;;6.05;3.10;;;18.60;79.90;;;;;;6135640;23;20045;-88
2023/07/22 02:50:02;;;;;;;5.90;2.88;;;18.60;80.10;;;;;;6135567;23;20042;-88
2023/07/22 02:52:30;;;;;;;7.53;2.80;;;18.60;80.00;;;;;;6159949;23;20023;-88
2023/07/22 02:55:12;;;;;;;9.20;3.28;;;18.70;80.00;;;;;;6159713;23;20025;-88
2023/07/22 02:57:40;;;;;;;8.95;3.45;;;18.80;79.90;;;;;;6135605;23;20017;-88
2023/07/22 03:00:08;;;;;;;5.82;2.83;;;18.80;80.10;;;;;;6135222;23;20013;-88
2023/07/22 03:02:35;;;;;;;6.47;3.28;;;18.90;79.80;;;;;;6135462;23;20099;-88
2023/07/22 03:05:08;;;;;;;8.80;4.27;;;19.00;79.50;;;;;;6159904;23;20027;-88
2023/07/22 03:07:37;;;;;;;9.90;4.38;;;19.00;79.50;;;;;;6135887;23;20029;-88
2023/07/22 03:10:05;;;;;;;8.43;3.92;;;19.00;79.60;;;;;;6135773;23;20028;-89
2023/07/22 03:12:33;;;;;;;8.20;3.65;;;19.00;79.60;;;;;;6135534;23;20024;-89
2023/07/22 03:15:00;;;;;;;8.70;4.07;;;19.10;79.50;;;;;;6135913;23;20468;-88
2023/07/22 03:17:27;;;;;;;10.27;3.90;;;19.10;79.30;;;;;;6160751;23;20024;-88
2023/07/22 03:19:54;;;;;;;7.88;4.22;;;19.20;79.20;;;;;;6136032;23;20107;-89
2023/07/22 03:22:21;;;;;;;8.85;4.35;;;19.20;79.20;;;;;;6135958;23;20072;-88
2023/07/22 03:24:49;;;;;;;10.25;4.57;;;19.10;79.10;;;;;;6136076;23;20068;-88
2023/07/22 03:27:17;;;;;;;10.15;4.28;;;19.10;79.40;;;;;;6136067;23;20025;-88
2023/07/22 03:29:44;;;;;;;11.17;4.70;;;19.20;79.40;;;;;;6136447;23;20108;-88
2023/07/22 03:32:11;;;;;;;10.95;5.95;;;19.10;79.30;;;;;;6137757;23;20021;-88
2023/07/22 03:34:38;;;;;;;11.35;6.22;;;19.10;79.40;;;;;;6137486;23;20079;-88
2023/07/22 03:37:05;;;;;;;13.82;7.30;;;19.10;79.60;;;;;;6137960;23;20013;-88
2023/07/22 03:39:32;;;;;;;18.00;8.90;;;19.10;79.70;;;;;;6137952;23;20028;-88
2023/07/22 03:41:59;;;;;;;17.00;8.53;;;19.10;79.90;;;;;;6137598;23;20432;-88
2023/07/22 03:44:28;;;;;;;12.50;6.82;;;19.00;80.40;;;;;;6137330;23;20466;-88
2023/07/22 03:46:56;;;;;;;12.05;7.35;;;18.80;80.50;;;;;;6161206;23;20111;-88
2023/07/22 03:49:23;;;;;;;15.25;7.65;;;18.70;80.60;;;;;;6137165;23;20406;-88
2023/07/22 03:51:50;;;;;;;13.52;8.00;;;18.60;81.30;;;;;;6137141;23;20100;-88
2023/07/22 03:54:18;;;;;;;17.27;8.53;;;18.60;81.50;;;;;;6136631;23;20342;-87
2023/07/22 03:56:45;;;;;;;14.18;8.63;;;18.60;81.70;;;;;;6137120;23;20448;-88
2023/07/22 03:59:12;;;;;;;15.32;9.20;;;18.60;81.80;;;;;;6137251;23;20021;-88
2023/07/22 04:01:39;;;;;;;12.85;8.27;;;18.60;81.90;;;;;;6136687;23;20099;-88
2023/07/22 04:04:06;;;;;;;15.02;7.95;;;18.60;82.20;;;;;;6137058;23;20013;-88
2023/07/22 04:06:33;;;;;;;14.80;8.70;;;18.60;82.00;;;;;;6136985;23;20017;-88
2023/07/22 04:09:00;;;;;;;13.05;7.22;;;18.60;82.10;;;;;;6137284;23;20025;-88
2023/07/22 04:11:27;;;;;;;12.88;7.45;;;18.70;82.00;;;;;;6161673;23;20043;-88
2023/07/22 04:13:54;;;;;;;14.13;7.97;;;18.70;81.80;;;;;;6161584;23;20017;-88
2023/07/22 04:16:21;;;;;;;13.25;7.97;;;18.80;81.70;;;;;;6161499;23;20017;-88
2023/07/22 04:18:48;;;;;;;13.93;7.87;;;18.80;81.20;;;;;;6137196;23;20021;-89
2023/07/22 04:21:15;;;;;;;13.32;8.25;;;18.80;81.50;;;;;;6136985;23;20399;-89
2023/07/22 04:23:43;;;;;;;15.95;8.95;;;18.90;81.30;;;;;;6161532;23;20443;-89
2023/07/22 04:26:10;;;;;;;12.80;7.78;;;19.00;81.30;;;;;;6136712;23;20056;-89
2023/07/22 04:28:37;;;;;;;17.42;8.70;;;18.90;81.30;;;;;;6137464;23;20020;-88
2023/07/22 04:31:05;;;;;;;16.27;10.27;;;19.00;81.20;;;;;;6137600;23;20048;-89
2023/07/22 04:33:34;;;;;;;18.83;10.30;;;19.00;81.60;;;;;;6137140;23;20463;-88
2023/07/22 04:36:01;;;;;;;15.70;9.15;;;19.00;81.70;;;;;;6136487;23;20044;-88
2023/07/22 04:38:29;;;;;;;16.58;10.23;;;19.00;81.80;;;;;;6160486;23;20021;-88
2023/07/22 04:40:56;;;;;;;17.98;10.32;;;19.00;81.50;;;;;;6136100;23;20071;-88
2023/07/22 04:43:23;;;;;;;16.47;10.17;;;18.90;81.60;;;;;;6136395;23;20436;-88
2023/07/22 04:45:50;;;;;;;16.50;9.90;;;19.00;81.60;;;;;;6135968;23;20383;-86
2023/07/22 04:48:22;;;;;;;17.80;9.05;;;19.00;81.80;;;;;;6135686;23;20025;-87
2023/07/22 04:50:49;;;;;;;15.18;8.98;;;19.00;81.50;;;;;;6135545;23;20455;-86
2023/07/22 04:53:17;;;;;;;13.43;8.75;;;18.90;82.10;;;;;;6136185;23;20459;-87
2023/07/22 04:55:44;;;;;;;14.70;8.27;;;18.90;81.60;;;;;;6130357;23;20452;-88
2023/07/22 04:58:11;;;;;;;10.38;6.78;;;18.90;81.20;;;;;;6130855;23;20072;-88
2023/07/22 05:00:38;;;;;;;14.15;6.97;;;19.00;81.20;;;;;;6155335;23;20021;-88
2023/07/22 05:03:05;;;;;;;10.35;6.25;;;19.10;81.00;;;;;;6130832;23;20060;-88
2023/07/22 05:05:33;;;;;;;12.35;7.78;;;19.10;81.50;;;;;;6155658;23;20021;-87
2023/07/22 05:08:00;;;;;;;12.53;7.07;;;19.20;81.60;;;;;;6130663;23;20029;-87
2023/07/22 05:10:28;;;;;;;11.07;6.18;;;19.30;81.60;;;;;;6131138;23;20448;-87
2023/07/22 05:12:57;;;;;;;11.65;6.68;;;19.30;79.80;;;;;;6155323;23;20356;-88
2023/07/22 05:15:24;;;;;;;10.65;6.30;;;19.20;80.20;;;;;;6131507;23;20044;-90
2023/07/22 05:17:51;;;;;;;12.60;6.53;;;19.10;80.50;;;;;;6156532;23;20467;-89
2023/07/22 05:20:18;;;;;;;11.00;5.97;;;19.00;81.40;;;;;;6131971;23;20018;-90
2023/07/22 05:22:45;;;;;;;11.40;6.63;;;18.80;80.50;;;;;;6156165;23;20021;-89
2023/07/22 05:25:12;;;;;;;13.13;6.90;;;18.50;80.70;;;;;;6131873;23;20483;-89
2023/07/22 05:27:40;;;;;;;10.52;6.82;;;18.30;81.10;;;;;;6156027;23;20021;-89
2023/07/22 05:30:08;;;;;;;12.18;6.95;;;18.30;81.40;;;;;;6156264;23;20013;-88
2023/07/22 05:32:46;;;;;;;13.90;6.83;;;18.30;80.90;;;;;;6156041;23;20021;-89
2023/07/22 05:35:13;;;;;;;12.73;5.82;;;18.10;80.90;;;;;;6131739;23;20018;-89
2023/07/22 05:37:40;;;;;;;12.18;6.10;;;18.00;81.00;;;;;;6156297;23;20025;-89
2023/07/22 05:40:07;;;;;;;8.88;5.53;;;18.10;81.10;;;;;;6131579;23;20025;-89
2023/07/22 05:42:34;;;;;;;10.90;5.68;;;18.10;81.40;;;;;;6156087;23;20056;-89
2023/07/22 05:45:03;;;;;;;11.67;6.47;;;18.20;80.90;;;;;;6156247;23;20014;-89
2023/07/22 05:47:29;;;;;;;9.20;5.25;;;18.30;80.30;;;;;;6156043;23;20029;-89
2023/07/22 05:49:56;;;;;;;15.93;5.82;;;18.20;79.30;;;;;;6131676;23;20025;-89
2023/07/22 05:52:24;;;;;;;10.95;5.25;;;18.10;79.40;;;;;;6131131;23;20021;-89
2023/07/22 05:54:51;;;;;;;11.85;5.43;;;18.00;80.00;;;;;;6155739;23;20033;-89
2023/07/22 05:57:18;;;;;;;12.17;5.53;;;18.00;79.70;;;;;;6131344;23;20446;-88
2023/07/22 05:59:45;;;;;;;12.15;5.82;;;17.90;79.60;;;;;;6131704;23;20440;-89
2023/07/22 06:02:13;;;;;;;13.10;5.82;;;17.80;80.60;;;;;;6155724;23;20109;-89
2023/07/22 06:04:40;;;;;;;12.20;6.32;;;17.90;81.10;;;;;;6131448;23;20021;-89
2023/07/22 06:07:07;;;;;;;10.02;6.00;;;17.90;80.80;;;;;;6131370;23;20021;-89
2023/07/22 06:09:35;;;;;;;12.23;5.30;;;17.90;80.50;;;;;;6131208;23;20040;-88
2023/07/22 06:12:03;;;;;;;9.73;5.97;;;17.90;80.60;;;;;;6131375;23;20021;-89
2023/07/22 06:14:30;;;;;;;16.33;7.25;;;17.90;81.00;;;;;;6155748;23;20056;-88
2023/07/22 06:16:57;;;;;;;11.60;5.55;;;18.00;81.30;;;;;;6130962;23;20018;-89
2023/07/22 06:19:24;;;;;;;13.45;6.70;;;18.20;81.00;;;;;;6131272;23;20017;-89
2023/07/22 06:21:51;;;;;;;13.80;5.50;;;18.30;80.90;;;;;;6131155;23;20073;-89
2023/07/22 06:24:19;;;;;;;11.50;5.72;;;18.30;80.80;;;;;;6131358;23;20025;-89
2023/07/22 06:26:46;;;;;;;9.60;5.35;;;18.50;80.00;;;;;;6155860;23;20021;-88
2023/07/22 06:29:13;;;;;;;12.57;5.70;;;18.50;79.50;;;;;;6155504;23;20049;-89
2023/07/22 06:31:40;;;;;;;11.52;6.22;;;18.60;79.00;;;;;;6155824;23;20057;-89
2023/07/22 06:34:07;;;;;;;9.33;5.53;;;18.60;79.40;;;;;;6131475;23;20025;-89
2023/07/22 06:36:34;;;;;;;12.60;6.05;;;18.70;79.80;;;;;;6131266;23;20028;-89
2023/07/22 06:39:01;;;;;;;9.85;6.00;;;18.80;79.70;;;;;;6131447;23;20520;-90
2023/07/22 06:41:28;;;;;;;11.32;4.80;;;18.90;80.10;;;;;;6155681;23;20080;-89
2023/07/22 06:43:55;;;;;;;9.35;5.20;;;18.90;78.40;;;;;;6155733;23;20068;-90
2023/07/22 06:46:22;;;;;;;10.37;5.43;;;18.90;78.40;;;;;;6130713;23;20393;-88
2023/07/22 06:48:50;;;;;;;10.98;5.03;;;19.00;77.60;;;;;;6154822;23;20032;-88
2023/07/22 06:51:17;;;;;;;10.68;6.55;;;18.90;78.20;;;;;;6130944;23;20017;-88
2023/07/22 06:53:44;;;;;;;17.30;8.25;;;18.90;77.70;;;;;;6159384;23;20032;-88
2023/07/22 06:56:11;;;;;;;15.13;7.95;;;19.00;78.70;;;;;;6135625;23;20017;-90
2023/07/22 06:58:38;;;;;;;13.90;6.63;;;18.90;79.30;;;;;;6159831;23;20510;-88
2023/07/22 07:01:05;;;;;;;10.60;7.03;;;18.90;79.10;;;;;;6159453;23;20108;-87
2023/07/22 07:03:32;;;;;;;12.07;6.68;;;18.80;79.50;;;;;;6134812;23;20024;-87
2023/07/22 07:05:59;;;;;;;14.13;6.78;;;18.80;80.00;;;;;;6159331;23;20029;-87
2023/07/22 07:08:26;;;;;;;12.05;6.20;;;18.90;79.90;;;;;;6135030;23;20384;-88
2023/07/22 07:10:53;;;;;;;10.20;6.03;;;19.00;79.60;;;;;;6135301;23;20025;-89
2023/07/22 07:13:22;;;;;;;11.77;6.38;;;19.00;78.80;;;;;;6159986;23;20478;-88
2023/07/22 07:15:50;;;;;;;10.40;5.60;;;19.00;78.60;;;;;;6135587;23;20021;-88
2023/07/22 07:18:17;;;;;;;11.77;5.88;;;19.10;78.50;;;;;;6159991;23;20027;-88
2023/07/22 07:20:45;;;;;;;12.90;5.95;;;19.10;77.50;;;;;;6160506;23;20020;-89
2023/07/22 07:23:13;;;;;;;12.33;5.70;;;19.20;77.90;;;;;;6160250;23;20052;-88
2023/07/22 07:25:40;;;;;;;11.35;6.57;;;19.10;77.90;;;;;;6160315;23;20013;-88
2023/07/22 07:28:07;;;;;;;12.13;5.90;;;19.10;78.30;;;;;;6135504;23;20048;-88
2023/07/22 07:30:34;;;;;;;12.02;5.20;;;19.10;77.80;;;;;;6135378;23;20104;-88
2023/07/22 07:33:03;;;;;;;11.13;5.63;;;19.10;77.60;;;;;;6135351;23;20100;-88
2023/07/22 07:35:30;;;;;;;9.30;5.13;;;19.40;78.00;;;;;;6135598;23;20021;-88
2023/07/22 07:37:57;;;;;;;9.05;4.97;;;19.50;75.10;;;;;;6135043;23;20359;-88
2023/07/22 07:40:26;;;;;;;10.10;5.32;;;19.60;75.70;;;;;;6135587;23;20462;-88
2023/07/22 07:42:53;;;;;;;13.48;4.75;;;19.80;75.00;;;;;;6159611;23;20069;-88
2023/07/22 07:45:20;;;;;;;11.43;4.68;;;20.20;72.90;;;;;;6135706;23;20021;-88
2023/07/22 07:47:47;;;;;;;9.57;5.60;;;20.40;72.40;;;;;;6135784;23;20470;-88
2023/07/22 07:50:14;;;;;;;14.05;5.50;;;20.60;73.30;;;;;;6160507;23;20016;-88
2023/07/22 07:52:41;;;;;;;11.02;5.20;;;20.70;70.30;;;;;;6135902;23;20063;-90
2023/07/22 07:55:08;;;;;;;8.50;4.40;;;20.70;69.80;;;;;;6130915;23;20344;-89
2023/07/22 07:57:35;;;;;;;9.25;4.68;;;20.70;69.90;;;;;;6130947;23;20009;-89
2023/07/22 08:00:03;;;;;;;10.43;5.43;;;20.70;70.20;;;;;;6155896;23;20017;-89
2023/07/22 08:02:30;;;;;;;9.40;5.05;;;20.80;69.70;;;;;;6155867;23;20025;-90
2023/07/22 08:04:57;;;;;;;12.88;5.00;;;20.90;69.40;;;;;;6132198;23;20122;-91
2023/07/22 08:07:24;;;;;;;10.15;4.65;;;21.20;69.00;;;;;;6132013;23;20060;-93
2023/07/22 08:09:52;;;;;;;10.30;4.65;;;21.50;67.40;;;;;;6156978;23;20032;-93
2023/07/22 08:12:22;;;;;;;9.20;4.47;;;21.50;68.30;;;;;;6133224;23;20022;-92
2023/07/22 08:14:49;;;;;;;8.13;4.55;;;21.50;69.80;;;;;;6132146;23;20032;-91
2023/07/22 08:17:16;;;;;;;8.52;4.47;;;21.50;69.70;;;;;;6157894;23;20108;-91
2023/07/22 08:19:44;;;;;;;10.93;4.78;;;21.40;69.40;;;;;;6158022;23;20017;-91
2023/07/22 08:22:11;;;;;;;9.07;3.95;;;21.20;68.40;;;;;;6133373;23;20471;-92
2023/07/22 08:24:38;;;;;;;9.23;4.53;;;21.10;67.70;;;;;;6157284;23;20017;-91
2023/07/22 08:27:05;;;;;;;7.88;4.90;;;21.10;69.20;;;;;;6158055;23;20537;-91
2023/07/22 08:29:32;;;;;;;10.23;5.38;;;21.10;69.00;;;;;;6133261;23;20029;-91
2023/07/22 08:31:59;;;;;;;9.27;4.32;;;21.10;68.90;;;;;;6157757;23;20456;-91
2023/07/22 08:34:27;;;;;;;8.13;4.50;;;21.10;69.10;;;;;;6158120;23;20025;-92
2023/07/22 08:36:54;;;;;;;9.37;4.43;;;21.30;69.90;;;;;;6157487;23;20021;-92
2023/07/22 08:39:21;;;;;;;8.18;4.63;;;21.60;68.30;;;;;;6158142;23;20017;-93
2023/07/22 08:41:50;;;;;;;9.00;5.38;;;21.90;69.30;;;;;;6133646;23;20013;-92
2023/07/22 08:44:21;;;;;;;7.63;4.95;;;22.00;67.10;;;;;;6158326;23;20049;-92
2023/07/22 08:46:57;;;;;;;10.07;5.03;;;22.10;66.90;;;;;;6133977;23;20444;-93
2023/07/22 08:49:26;;;;;;;8.33;5.30;;;22.20;66.30;;;;;;6157812;23;20113;-91
2023/07/22 08:51:55;;;;;;;10.75;5.07;;;22.30;65.50;;;;;;6157233;23;20033;-92
2023/07/22 08:54:23;;;;;;;10.50;5.63;;;22.30;64.90;;;;;;6132894;23;20074;-92
2023/07/22 08:56:51;;;;;;;9.15;4.68;;;22.60;64.10;;;;;;6156600;23;20014;-92
2023/07/22 08:59:18;;;;;;;11.32;4.88;;;22.60;63.60;;;;;;6132296;23;20025;-92
2023/07/22 09:01:48;;;;;;;7.87;4.43;;;22.30;64.00;;;;;;6156853;23;20013;-93
2023/07/22 09:04:15;;;;;;;9.23;5.20;;;22.10;65.50;;;;;;6156897;23;20014;-92
2023/07/22 09:06:43;;;;;;;6.95;4.57;;;22.00;65.60;;;;;;6132782;23;20358;-92
2023/07/22 09:09:11;;;;;;;8.60;5.15;;;21.90;65.50;;;;;;6132657;23;20037;-92
2023/07/22 09:11:39;;;;;;;9.13;5.07;;;21.80;65.80;;;;;;6132616;23;20030;-92
2023/07/22 09:14:06;;;;;;;8.33;4.57;;;21.80;65.90;;;;;;6156894;23;20048;-92
2023/07/22 09:16:34;;;;;;;9.07;4.75;;;21.80;66.60;;;;;;6157040;23;20014;-92
2023/07/22 09:19:04;;;;;;;9.30;5.10;;;22.00;66.10;;;;;;6156999;23;20022;-92
2023/07/22 09:21:35;;;;;;;8.77;4.63;;;22.20;65.10;;;;;;6156822;23;20022;-93
2023/07/22 09:24:23;;;;;;;8.25;4.85;;;22.20;65.00;;;;;;6132478;23;20021;-92
2023/07/22 09:26:51;;;;;;;9.77;4.90;;;22.10;65.80;;;;;;6131567;23;20049;-92
2023/07/22 09:29:18;;;;;;;8.35;4.53;;;22.00;65.30;;;;;;6132313;23;20385;-91
2023/07/22 09:31:51;;;;;;;8.40;4.80;;;22.10;65.50;;;;;;6132031;23;20052;-91
2023/07/22 09:34:18;;;;;;;8.02;4.10;;;22.40;65.80;;;;;;6133706;23;20021;-91
2023/07/22 09:36:53;;;;;;;5.93;3.63;;;22.60;63.20;;;;;;6156308;23;20024;-91
2023/07/22 09:39:21;;;;;;;7.30;4.00;;;22.60;61.80;;;;;;6132158;23;20014;-92
2023/07/22 09:41:48;;;;;;;6.70;4.00;;;22.30;62.90;;;;;;6156812;23;20024;-92
2023/07/22 09:44:16;;;;;;;8.00;4.45;;;22.20;61.90;;;;;;6156509;23;20376;-91
2023/07/22 09:46:47;;;;;;;6.53;3.10;;;22.10;62.60;;;;;;6131975;23;20029;-91
2023/07/22 09:49:17;;;;;;;5.88;3.00;;;21.90;60.80;;;;;;6133302;23;20044;-91
2023/07/22 09:51:45;;;;;;;5.97;3.30;;;21.80;61.10;;;;;;6156585;23;20021;-91
2023/07/22 09:54:30;;;;;;;6.68;2.80;;;21.80;62.70;;;;;;6135111;23;20461;-91
2023/07/22 09:56:58;;;;;;;6.70;3.30;;;22.00;61.90;;;;;;6156068;23;20017;-92
2023/07/22 09:59:28;;;;;;;9.02;4.30;;;22.50;62.10;;;;;;6131732;23;20021;-92
2023/07/22 10:01:58;;;;;;;7.03;3.65;;;23.00;61.60;;;;;;6156466;23;20448;-92
2023/07/22 10:04:31;;;;;;;6.03;3.20;;;23.10;60.00;;;;;;6131568;23;20097;-91
2023/07/22 10:06:59;;;;;;;6.97;3.53;;;23.10;60.10;;;;;;6131774;23;20472;-92
2023/07/22 10:09:28;;;;;;;6.05;2.97;;;23.20;57.50;;;;;;6131401;23;20025;-92
2023/07/22 10:11:55;;;;;;;4.95;2.78;;;23.40;56.10;;;;;;6156029;23;20021;-92
2023/07/22 10:14:23;;;;;;;7.57;3.10;;;23.40;55.50;;;;;;6131893;23;20021;-93
2023/07/22 10:16:52;;;;;;;5.70;3.30;;;23.40;55.50;;;;;;6131392;23;20025;-91
2023/07/22 10:19:21;;;;;;;5.78;3.35;;;23.40;54.80;;;;;;6131991;23;20449;-91
2023/07/22 10:21:49;;;;;;;6.10;3.30;;;23.60;56.60;;;;;;6131247;23;20020;-94
2023/07/22 10:24:17;;;;;;;8.13;3.17;;;23.80;55.80;;;;;;6156436;23;20021;-93
2023/07/22 10:26:45;;;;;;;5.45;3.17;;;23.70;55.20;;;;;;6156528;23;20017;-92
2023/07/22 10:29:14;;;;;;;5.87;3.40;;;23.40;55.90;;;;;;6132279;23;20064;-93
2023/07/22 10:31:41;;;;;;;6.85;2.22;;;23.30;55.40;;;;;;6155874;23;20515;-92
2023/07/22 10:34:08;;;;;;;5.35;2.97;;;23.40;55.30;;;;;;6131477;23;20092;-92
2023/07/22 10:36:36;;;;;;;5.80;3.00;;;23.20;55.20;;;;;;6156752;23;20021;-92
2023/07/22 10:39:04;;;;;;;9.15;3.10;;;23.10;56.90;;;;;;6131481;23;20100;-92
2023/07/22 10:41:33;;;;;;;6.87;3.20;;;23.00;55.60;;;;;;6155910;23;20017;-92
2023/07/22 10:44:00;;;;;;;5.38;2.72;;;23.10;55.20;;;;;;6155788;23;20474;-92
2023/07/22 10:46:33;;;;;;;5.72;3.53;;;23.30;57.60;;;;;;6156106;23;20357;-92
2023/07/22 10:49:16;;;;;;;6.72;3.50;;;23.50;56.60;;;;;;6131744;23;20021;-92
2023/07/22 10:51:53;;;;;;;5.43;3.00;;;23.80;56.80;;;;;;6131470;23;20021;-92
2023/07/22 10:54:34;;;;;;;5.93;3.17;;;23.90;51.90;;;;;;6136320;23;20025;-92
2023/07/22 10:57:24;;;;;;;8.25;3.67;;;24.00;54.10;;;;;;6136006;23;20017;-92
2023/07/22 10:59:52;;;;;;;7.72;4.15;;;24.10;52.70;;;;;;6136913;23;20051;-92
2023/07/22 11:02:27;;;;;;;8.55;4.53;;;23.80;53.50;;;;;;6136078;23;20024;-91
2023/07/22 11:04:59;;;;;;;8.13;4.25;;;23.80;55.30;;;;;;6136331;23;20017;-91
2023/07/22 11:07:41;;;;;;;8.63;4.03;;;23.90;53.30;;;;;;6136658;23;20024;-91
2023/07/22 11:10:16;;;;;;;7.55;3.97;;;24.10;54.00;;;;;;6135850;23;20024;-92
2023/07/22 11:12:47;;;;;;;6.47;3.80;;;24.10;50.00;;;;;;6135982;23;20399;-92
2023/07/22 11:15:16;;;;;;;6.50;3.60;;;23.80;48.30;;;;;;6135853;23;20017;-91
2023/07/22 11:17:43;;;;;;;7.55;4.47;;;23.80;52.30;;;;;;6135881;23;20021;-92
2023/07/22 11:20:10;;;;;;;8.03;4.37;;;23.80;51.70;;;;;;6160594;23;20459;-92
2023/07/22 11:22:41;;;;;;;7.65;4.50;;;23.70;52.00;;;;;;6136161;23;20017;-92
2023/07/22 11:25:09;;;;;;;8.35;5.00;;;23.60;54.00;;;;;;6136290;23;20028;-91
2023/07/22 11:27:36;;;;;;;8.93;4.80;;;23.70;52.90;;;;;;6136084;23;20044;-90
2023/07/22 11:30:04;;;;;;;7.80;5.18;;;23.80;54.10;;;;;;6135794;23;20045;-90
2023/07/22 11:32:32;;;;;;;7.90;4.77;;;23.80;53.80;;;;;;6136087;23;20023;-91
2023/07/22 11:34:59;;;;;;;8.68;4.93;;;24.00;52.50;;;;;;6135855;23;20021;-90
2023/07/22 11:37:29;;;;;;;7.40;4.53;;;24.20;53.90;;;;;;6135738;23;20064;-89
2023/07/22 11:40:01;;;;;;;8.13;5.30;;;24.20;51.00;;;;;;6135877;23;20021;-91
2023/07/22 11:42:29;;;;;;;8.88;5.05;;;24.20;51.80;;;;;;6136013;23;20017;-91
2023/07/22 11:44:59;;;;;;;7.40;4.73;;;24.60;51.60;;;;;;6135401;23;20021;-90
2023/07/22 11:47:32;;;;;;;8.07;4.47;;;24.80;50.40;;;;;;6136669;23;20021;-91
2023/07/22 11:50:00;;;;;;;7.80;4.57;;;24.90;48.30;;;;;;6135929;23;20032;-92
2023/07/22 11:52:30;;;;;;;7.85;4.80;;;24.90;48.70;;;;;;6137912;23;20341;-91
2023/07/22 11:55:03;;;;;;;7.35;4.82;;;24.90;49.40;;;;;;6138079;23;20473;-90
2023/07/22 11:57:30;;;;;;;7.30;4.67;;;24.90;47.00;;;;;;6137602;23;20025;-91
2023/07/22 11:59:57;;;;;;;7.07;4.10;;;25.00;48.80;;;;;;6162094;23;20348;-92
2023/07/22 12:02:26;;;;;;;7.25;4.35;;;25.00;48.90;;;;;;6137710;23;20017;-91
2023/07/22 12:04:59;;;;;;;8.07;4.35;;;25.00;49.00;;;;;;6137839;23;20036;-91
2023/07/22 12:07:35;;;;;;;7.43;4.05;;;25.10;49.30;;;;;;6161702;23;20072;-91
2023/07/22 12:10:09;;;;;;;6.80;3.70;;;25.30;48.90;;;;;;6138277;23;20052;-91
2023/07/22 12:12:44;;;;;;;6.80;4.35;;;25.50;50.30;;;;;;6137709;23;20052;-91
2023/07/22 12:15:19;;;;;;;8.10;4.00;;;25.60;50.60;;;;;;6137720;23;20444;-91
2023/07/22 12:17:47;;;;;;;6.85;3.67;;;25.60;48.70;;;;;;6137605;23;20013;-90
2023/07/22 12:20:20;;;;;;;8.70;3.60;;;25.60;49.10;;;;;;6137271;23;20017;-90
2023/07/22 12:22:52;;;;;;;7.90;2.77;;;25.60;47.30;;;;;;6161951;23;20357;-90
2023/07/22 12:25:20;;;;;;;5.30;2.63;;;25.40;48.40;;;;;;6136910;23;20063;-91
2023/07/22 12:27:53;;;;;;;7.57;2.42;;;25.30;47.30;;;;;;6161665;23;20021;-91
2023/07/22 12:30:29;;;;;;;6.38;2.83;;;25.30;47.30;;;;;;6139562;23;20043;-90
2023/07/22 12:32:56;;;;;;;5.72;2.58;;;25.60;46.80;;;;;;6137329;23;20029;-90
2023/07/22 12:35:23;;;;;;;4.80;2.23;;;25.70;45.60;;;;;;6137304;23;20017;-90
2023/07/22 12:37:51;;;;;;;5.75;2.50;;;25.80;48.50;;;;;;6162544;23;20072;-91
2023/07/22 12:40:27;;;;;;;6.40;2.40;;;25.60;47.20;;;;;;6137181;23;20021;-91
2023/07/22 12:42:57;;;;;;;6.38;2.13;;;25.60;47.60;;;;;;6137932;23;20013;-91
2023/07/22 12:45:29;;;;;;;6.38;2.42;;;25.60;46.40;;;;;;6137892;23;20028;-90
2023/07/22 12:47:56;;;;;;;5.57;1.93;;;25.70;46.30;;;;;;6137098;23;20025;-91
2023/07/22 12:50:23;;;;;;;6.35;1.88;;;25.70;44.70;;;;;;6161732;23;20017;-91